createdAt,value
2019-03-25T00:00:09.125Z,1010.70
2019-03-25T00:01:09.098Z,1010.63
2019-03-25T00:02:09.113Z,1010.60
2019-03-25T00:03:09.081Z,1010.61
2019-03-25T00:04:09.066Z,1010.62
2019-03-25T00:05:09.088Z,1010.59
2019-03-25T00:06:09.040Z,1010.54
2019-03-25T00:07:09.037Z,1010.58
2019-03-25T00:08:09.019Z,1010.54
2019-03-25T00:09:09.006Z,1010.52
2019-03-25T00:10:09.039Z,1010.48
2019-03-25T00:11:08.991Z,1010.48
2019-03-25T00:12:08.986Z,1010.50
2019-03-25T00:13:08.972Z,1010.47
2019-03-25T00:14:08.955Z,1010.51
2019-03-25T00:15:08.940Z,1010.50
2019-03-25T00:16:08.954Z,1010.49
2019-03-25T00:17:08.927Z,1010.48
2019-03-25T00:18:08.902Z,1010.52
2019-03-25T00:19:08.899Z,1010.52
2019-03-25T00:20:08.886Z,1010.46
2019-03-25T00:21:08.901Z,1010.42
2019-03-25T00:22:08.870Z,1010.39
2019-03-25T00:23:08.860Z,1010.36
2019-03-25T00:24:08.849Z,1010.35
2019-03-25T00:25:08.864Z,1010.35
2019-03-25T00:26:08.818Z,1010.35
2019-03-25T00:27:08.831Z,1010.39
2019-03-25T00:28:08.805Z,1010.31
2019-03-25T00:29:08.788Z,1010.33
2019-03-25T00:30:08.789Z,1010.34
2019-03-25T00:31:08.775Z,1010.34
2019-03-25T00:32:08.783Z,1010.33
2019-03-25T00:33:08.742Z,1010.31
2019-03-25T00:34:08.746Z,1010.30
2019-03-25T00:35:08.735Z,1010.30
2019-03-25T00:36:08.716Z,1010.30
2019-03-25T00:37:08.709Z,1010.29
2019-03-25T00:38:08.716Z,1010.27
2019-03-25T00:39:08.694Z,1010.28
2019-03-25T00:40:08.666Z,1010.28
2019-03-25T00:41:08.651Z,1010.23
2019-03-25T00:42:08.681Z,1010.23
2019-03-25T00:43:08.645Z,1010.25
2019-03-25T00:44:08.651Z,1010.21
2019-03-25T00:45:08.621Z,1010.20
2019-03-25T00:46:08.594Z,1010.19
2019-03-25T00:47:08.614Z,1010.16
2019-03-25T00:48:08.590Z,1010.15
2019-03-25T00:49:08.602Z,1010.09
2019-03-25T00:50:08.559Z,1010.12
2019-03-25T00:51:08.555Z,1010.05
2019-03-25T00:52:08.534Z,1010.01
2019-03-25T00:53:08.539Z,1009.98
2019-03-25T00:54:08.523Z,1009.97
2019-03-25T00:55:08.526Z,1009.94
2019-03-25T00:56:08.502Z,1009.89
2019-03-25T00:57:08.494Z,1009.84
2019-03-25T00:58:08.488Z,1009.80
2019-03-25T00:59:08.459Z,1009.82
2019-03-25T01:00:08.451Z,1009.76
2019-03-25T01:01:08.459Z,1009.73
2019-03-25T01:02:08.439Z,1009.78
2019-03-25T01:03:08.431Z,1009.73
2019-03-25T01:04:08.395Z,1009.74
2019-03-25T01:05:08.404Z,1009.67
2019-03-25T01:06:08.422Z,1009.57
2019-03-25T01:07:08.382Z,1009.59
2019-03-25T01:08:08.371Z,1009.53
2019-03-25T01:09:08.375Z,1009.46
2019-03-25T01:10:08.343Z,1009.49
2019-03-25T01:11:08.328Z,1009.43
2019-03-25T01:12:08.334Z,1009.36
2019-03-25T01:13:08.299Z,1009.37
2019-03-25T01:14:08.307Z,1009.33
2019-03-25T01:15:08.294Z,1009.30
2019-03-25T01:16:08.285Z,1009.33
2019-03-25T01:17:08.301Z,1009.28
2019-03-25T01:18:16.845Z,1009.32
2019-03-25T01:19:09.238Z,1009.27
2019-03-25T01:20:08.275Z,1009.27
2019-03-25T01:21:08.222Z,1009.25
2019-03-25T01:22:08.202Z,1009.19
2019-03-25T01:23:08.228Z,1009.24
2019-03-25T01:24:08.181Z,1009.13
2019-03-25T01:25:08.170Z,1009.18
2019-03-25T01:26:08.175Z,1009.16
2019-03-25T01:27:08.162Z,1009.18
2019-03-25T01:28:08.158Z,1009.10
2019-03-25T01:29:08.162Z,1009.09
2019-03-25T01:30:08.118Z,1009.04
2019-03-25T01:31:08.102Z,1009.00
2019-03-25T01:32:08.102Z,1009.03
2019-03-25T01:33:08.086Z,1009.03
2019-03-25T01:34:08.114Z,1009.02
2019-03-25T01:35:08.070Z,1009.02
2019-03-25T01:36:08.057Z,1009.01
2019-03-25T01:37:08.049Z,1008.96
2019-03-25T01:38:08.037Z,1008.97
2019-03-25T01:39:08.028Z,1008.96
2019-03-25T01:40:08.046Z,1008.91
2019-03-25T01:41:08.019Z,1008.94
2019-03-25T01:42:07.991Z,1008.92
2019-03-25T01:43:07.974Z,1008.92
2019-03-25T01:44:07.964Z,1008.92
2019-03-25T01:45:07.948Z,1008.88
2019-03-25T01:46:07.975Z,1008.85
2019-03-25T01:47:07.943Z,1008.85
2019-03-25T01:48:07.931Z,1008.81
2019-03-25T01:49:07.914Z,1008.76
2019-03-25T01:50:07.909Z,1008.78
2019-03-25T01:51:07.911Z,1008.74
2019-03-25T01:52:07.892Z,1008.70
2019-03-25T01:53:07.901Z,1008.66
2019-03-25T01:54:07.856Z,1008.67
2019-03-25T01:55:13.314Z,1008.66
2019-03-25T01:56:08.840Z,1008.66
2019-03-25T01:57:07.851Z,1008.64
2019-03-25T01:58:07.817Z,1008.61
2019-03-25T01:59:07.807Z,1008.59
2019-03-25T02:00:07.823Z,1008.59
2019-03-25T02:01:07.789Z,1008.58
2019-03-25T02:02:07.766Z,1008.56
2019-03-25T02:03:07.794Z,1008.53
2019-03-25T02:04:07.751Z,1008.49
2019-03-25T02:05:07.732Z,1008.49
2019-03-25T02:06:07.736Z,1008.43
2019-03-25T02:07:07.734Z,1008.42
2019-03-25T02:08:07.704Z,1008.44
2019-03-25T02:09:07.714Z,1008.43
2019-03-25T02:10:07.685Z,1008.43
2019-03-25T02:11:07.670Z,1008.40
2019-03-25T02:12:07.700Z,1008.46
2019-03-25T02:13:07.654Z,1008.40
2019-03-25T02:14:07.648Z,1008.39
2019-03-25T02:15:07.626Z,1008.33
2019-03-25T02:16:07.643Z,1008.33
2019-03-25T02:17:07.613Z,1008.30
2019-03-25T02:18:07.602Z,1008.30
2019-03-25T02:19:07.596Z,1008.29
2019-03-25T02:20:07.587Z,1008.28
2019-03-25T02:21:07.596Z,1008.25
2019-03-25T02:22:07.542Z,1008.22
2019-03-25T02:23:07.766Z,1008.22
2019-03-25T02:24:07.538Z,1008.18
2019-03-25T02:25:07.517Z,1008.22
2019-03-25T02:26:07.519Z,1008.14
2019-03-25T02:27:07.522Z,1008.15
2019-03-25T02:28:07.484Z,1008.14
2019-03-25T02:29:07.472Z,1008.12
2019-03-25T02:30:07.481Z,1008.13
2019-03-25T02:31:07.465Z,1008.15
2019-03-25T02:32:07.446Z,1008.12
2019-03-25T02:33:07.456Z,1008.10
2019-03-25T02:34:07.419Z,1008.06
2019-03-25T02:35:07.433Z,1008.00
2019-03-25T02:36:07.414Z,1007.96
2019-03-25T02:37:07.392Z,1008.00
2019-03-25T02:38:07.406Z,1007.96
2019-03-25T02:39:07.372Z,1007.99
2019-03-25T02:40:07.350Z,1008.01
2019-03-25T02:41:07.339Z,1007.99
2019-03-25T02:42:07.338Z,1007.87
2019-03-25T02:43:07.340Z,1007.91
2019-03-25T02:44:07.350Z,1007.91
2019-03-25T02:45:07.304Z,1007.89
2019-03-25T02:46:07.295Z,1007.89
2019-03-25T02:47:07.282Z,1007.90
2019-03-25T02:48:07.263Z,1007.90
2019-03-25T02:49:07.268Z,1007.84
2019-03-25T02:50:07.255Z,1007.81
2019-03-25T02:51:07.275Z,1007.78
2019-03-25T02:52:07.233Z,1007.82
2019-03-25T02:53:07.214Z,1007.79
2019-03-25T02:54:07.204Z,1007.74
2019-03-25T02:55:07.192Z,1007.74
2019-03-25T02:56:07.181Z,1007.73
2019-03-25T02:57:07.200Z,1007.69
2019-03-25T02:58:07.159Z,1007.65
2019-03-25T02:59:07.138Z,1007.61
2019-03-25T03:00:07.147Z,1007.61
2019-03-25T03:01:07.126Z,1007.59
2019-03-25T03:02:07.140Z,1007.56
2019-03-25T03:03:07.112Z,1007.54
2019-03-25T03:04:07.114Z,1007.54
2019-03-25T03:05:07.107Z,1007.51
2019-03-25T03:06:07.065Z,1007.51
2019-03-25T03:07:07.053Z,1007.41
2019-03-25T03:08:07.082Z,1007.38
2019-03-25T03:09:07.045Z,1007.43
2019-03-25T03:10:07.029Z,1007.37
2019-03-25T03:11:07.049Z,1007.40
2019-03-25T03:12:07.003Z,1007.38
2019-03-25T03:13:06.986Z,1007.39
2019-03-25T03:14:07.010Z,1007.36
2019-03-25T03:15:06.986Z,1007.35
2019-03-25T03:16:06.963Z,1007.32
2019-03-25T03:17:06.959Z,1007.33
2019-03-25T03:18:06.935Z,1007.33
2019-03-25T03:19:06.924Z,1007.34
2019-03-25T03:20:06.955Z,1007.34
2019-03-25T03:21:06.906Z,1007.34
2019-03-25T03:22:06.924Z,1007.33
2019-03-25T03:23:06.888Z,1007.29
2019-03-25T03:24:06.897Z,1007.24
2019-03-25T03:25:06.874Z,1007.23
2019-03-25T03:26:06.877Z,1007.27
2019-03-25T03:27:06.834Z,1007.25
2019-03-25T03:28:06.849Z,1007.20
2019-03-25T03:29:06.822Z,1007.18
2019-03-25T03:30:06.816Z,1007.22
2019-03-25T03:31:06.842Z,1007.14
2019-03-25T03:32:06.840Z,1007.11
2019-03-25T03:33:06.773Z,1007.01
2019-03-25T03:34:06.840Z,1007.03
2019-03-25T03:35:06.778Z,1007.03
2019-03-25T03:36:06.735Z,1006.98
2019-03-25T03:37:06.758Z,1006.97
2019-03-25T03:38:06.748Z,1006.97
2019-03-25T03:39:06.724Z,1006.93
2019-03-25T03:40:06.715Z,1006.91
2019-03-25T03:41:06.694Z,1006.91
2019-03-25T03:42:06.677Z,1006.93
2019-03-25T03:43:06.691Z,1006.94
2019-03-25T03:44:06.662Z,1006.89
2019-03-25T03:45:06.659Z,1006.88
2019-03-25T03:46:06.629Z,1006.89
2019-03-25T03:47:06.614Z,1006.88
2019-03-25T03:48:06.624Z,1006.79
2019-03-25T03:49:06.595Z,1006.80
2019-03-25T03:50:06.613Z,1006.83
2019-03-25T03:51:06.576Z,1006.84
2019-03-25T03:52:06.582Z,1006.81
2019-03-25T03:53:06.559Z,1006.87
2019-03-25T03:54:06.559Z,1006.84
2019-03-25T03:55:06.563Z,1006.77
2019-03-25T03:56:13.631Z,1006.76
2019-03-25T03:57:07.514Z,1006.74
2019-03-25T03:58:06.503Z,1006.74
2019-03-25T03:59:06.528Z,1006.71
2019-03-25T04:00:06.473Z,1006.73
2019-03-25T04:01:06.469Z,1006.70
2019-03-25T04:02:06.461Z,1006.65
2019-03-25T04:03:06.456Z,1006.65
2019-03-25T04:04:06.442Z,1006.64
2019-03-25T04:05:06.447Z,1006.62
2019-03-25T04:06:06.406Z,1006.61
2019-03-25T04:07:06.392Z,1006.56
2019-03-25T04:08:06.389Z,1006.57
2019-03-25T04:09:06.386Z,1006.63
2019-03-25T04:10:06.404Z,1006.56
2019-03-25T04:11:06.369Z,1006.58
2019-03-25T04:12:06.356Z,1006.54
2019-03-25T04:13:06.336Z,1006.51
2019-03-25T04:14:06.318Z,1006.50
2019-03-25T04:15:06.331Z,1006.48
2019-03-25T04:16:06.301Z,1006.44
2019-03-25T04:17:06.293Z,1006.42
2019-03-25T04:18:06.316Z,1006.39
2019-03-25T04:19:06.269Z,1006.35
2019-03-25T04:20:06.269Z,1006.38
2019-03-25T04:21:06.265Z,1006.31
2019-03-25T04:22:06.237Z,1006.27
2019-03-25T04:23:06.232Z,1006.26
2019-03-25T04:24:06.242Z,1006.19
2019-03-25T04:25:06.218Z,1006.18
2019-03-25T04:26:06.190Z,1006.09
2019-03-25T04:27:06.180Z,1006.08
2019-03-25T04:28:06.174Z,1006.05
2019-03-25T04:29:06.169Z,1006.07
2019-03-25T04:30:06.156Z,1006.08
2019-03-25T04:31:06.155Z,1006.05
2019-03-25T04:32:06.412Z,1006.05
2019-03-25T04:33:06.120Z,1006.06
2019-03-25T04:34:06.104Z,1006.04
2019-03-25T04:35:06.134Z,1006.10
2019-03-25T04:36:06.085Z,1006.07
2019-03-25T04:37:06.081Z,1006.06
2019-03-25T04:38:06.081Z,1006.04
2019-03-25T04:39:06.046Z,1006.03
2019-03-25T04:40:06.037Z,1006.00
2019-03-25T04:41:06.025Z,1005.94
2019-03-25T04:42:06.049Z,1005.90
2019-03-25T04:43:06.024Z,1005.85
2019-03-25T04:44:06.005Z,1005.91
2019-03-25T04:45:05.990Z,1005.86
2019-03-25T04:46:05.965Z,1005.84
2019-03-25T04:47:05.961Z,1005.84
2019-03-25T04:48:05.990Z,1005.82
2019-03-25T04:49:05.944Z,1005.77
2019-03-25T04:50:06.726Z,1005.71
2019-03-25T04:51:05.908Z,1005.75
2019-03-25T04:52:05.906Z,1005.73
2019-03-25T04:53:05.891Z,1005.78
2019-03-25T04:54:05.915Z,1005.78
2019-03-25T04:55:05.881Z,1005.79
2019-03-25T04:56:05.877Z,1005.75
2019-03-25T04:57:05.855Z,1005.73
2019-03-25T04:58:05.831Z,1005.69
2019-03-25T04:59:05.843Z,1005.71
2019-03-25T05:00:05.811Z,1005.73
2019-03-25T05:01:05.801Z,1005.62
2019-03-25T05:02:05.815Z,1005.66
2019-03-25T05:03:05.792Z,1005.68
2019-03-25T05:04:05.814Z,1005.67
2019-03-25T05:05:05.776Z,1005.62
2019-03-25T05:06:05.759Z,1005.56
2019-03-25T05:07:05.759Z,1005.58
2019-03-25T05:08:05.734Z,1005.54
2019-03-25T05:09:05.730Z,1005.54
2019-03-25T05:10:05.730Z,1005.55
2019-03-25T05:11:05.695Z,1005.53
2019-03-25T05:12:05.686Z,1005.50
2019-03-25T05:13:05.690Z,1005.47
2019-03-25T05:14:05.662Z,1005.46
2019-03-25T05:15:05.659Z,1005.40
2019-03-25T05:16:05.680Z,1005.41
2019-03-25T05:17:05.660Z,1005.46
2019-03-25T05:18:05.615Z,1005.36
2019-03-25T05:19:05.618Z,1005.34
2019-03-25T05:20:05.604Z,1005.29
2019-03-25T05:21:05.602Z,1005.30
2019-03-25T05:22:05.598Z,1005.31
2019-03-25T05:23:05.571Z,1005.25
2019-03-25T05:24:05.552Z,1005.26
2019-03-25T05:25:05.538Z,1005.22
2019-03-25T05:26:05.554Z,1005.24
2019-03-25T05:27:05.537Z,1005.23
2019-03-25T05:28:05.514Z,1005.23
2019-03-25T05:29:05.498Z,1005.13
2019-03-25T05:30:05.512Z,1005.15
2019-03-25T05:31:05.479Z,1005.09
2019-03-25T05:32:05.481Z,1005.12
2019-03-25T05:33:05.456Z,1005.18
2019-03-25T05:34:05.455Z,1005.15
2019-03-25T05:35:05.440Z,1005.13
2019-03-25T05:36:05.422Z,1005.14
2019-03-25T05:37:05.432Z,1005.15
2019-03-25T05:38:05.401Z,1005.11
2019-03-25T05:39:05.428Z,1005.11
2019-03-25T05:40:05.396Z,1005.07
2019-03-25T05:41:05.369Z,1005.07
2019-03-25T05:42:05.383Z,1005.05
2019-03-25T05:43:07.059Z,1005.04
2019-03-25T05:44:05.325Z,1005.05
2019-03-25T05:45:05.349Z,1005.03
2019-03-25T05:46:05.315Z,1005.06
2019-03-25T05:47:05.311Z,1005.03
2019-03-25T05:48:05.294Z,1005.04
2019-03-25T05:49:05.288Z,1005.00
2019-03-25T05:50:05.288Z,1004.98
2019-03-25T05:51:05.256Z,1005.00
2019-03-25T05:52:05.257Z,1005.06
2019-03-25T05:53:05.258Z,1005.04
2019-03-25T05:54:05.222Z,1005.09
2019-03-25T05:55:05.218Z,1005.07
2019-03-25T05:56:05.241Z,1005.03
2019-03-25T05:57:05.198Z,1005.03
2019-03-25T05:58:05.201Z,1005.04
2019-03-25T05:59:05.192Z,1005.04
2019-03-25T06:00:05.180Z,1005.04
2019-03-25T06:01:05.168Z,1004.97
2019-03-25T06:02:05.165Z,1005.03
2019-03-25T06:03:05.128Z,1004.96
2019-03-25T06:04:05.121Z,1004.94
2019-03-25T06:05:05.105Z,1004.93
2019-03-25T06:06:05.094Z,1004.90
2019-03-25T06:07:05.120Z,1004.92
2019-03-25T06:08:05.067Z,1004.88
2019-03-25T06:09:05.051Z,1004.86
2019-03-25T06:10:05.053Z,1004.84
2019-03-25T06:11:05.043Z,1004.82
2019-03-25T06:12:05.032Z,1004.89
2019-03-25T06:13:05.036Z,1004.93
2019-03-25T06:14:05.022Z,1004.93
2019-03-25T06:15:04.996Z,1004.96
2019-03-25T06:16:04.987Z,1004.92
2019-03-25T06:17:04.969Z,1004.97
2019-03-25T06:18:04.990Z,1004.93
2019-03-25T06:19:04.959Z,1004.93
2019-03-25T06:20:04.953Z,1004.96
2019-03-25T06:21:04.958Z,1004.90
2019-03-25T06:22:04.929Z,1004.97
2019-03-25T06:23:04.908Z,1004.91
2019-03-25T06:24:04.904Z,1004.94
2019-03-25T06:25:04.910Z,1004.93
2019-03-25T06:26:04.882Z,1004.92
2019-03-25T06:27:13.732Z,1004.88
2019-03-25T06:28:05.848Z,1004.93
2019-03-25T06:29:04.854Z,1004.95
2019-03-25T06:30:04.844Z,1004.90
2019-03-25T06:31:04.829Z,1005.01
2019-03-25T06:32:04.842Z,1005.00
2019-03-25T06:33:12.345Z,1004.96
2019-03-25T06:34:05.782Z,1004.99
2019-03-25T06:35:04.773Z,1004.98
2019-03-25T06:36:04.757Z,1005.07
2019-03-25T06:37:04.750Z,1005.01
2019-03-25T06:38:04.796Z,1005.04
2019-03-25T06:39:04.747Z,1005.06
2019-03-25T06:40:04.716Z,1005.08
2019-03-25T06:41:04.712Z,1005.03
2019-03-25T06:42:04.711Z,1005.05
2019-03-25T06:43:04.716Z,1005.02
2019-03-25T06:44:04.713Z,1005.02
2019-03-25T06:45:04.674Z,1005.05
2019-03-25T06:46:04.658Z,1005.04
2019-03-25T06:47:04.646Z,1005.01
2019-03-25T06:48:04.629Z,1005.02
2019-03-25T06:49:04.616Z,1005.07
2019-03-25T06:50:04.643Z,1005.02
2019-03-25T06:51:04.609Z,1005.08
2019-03-25T06:52:04.602Z,1005.06
2019-03-25T06:53:04.593Z,1005.02
2019-03-25T06:54:04.577Z,1005.11
2019-03-25T06:55:04.559Z,1005.09
2019-03-25T06:56:04.657Z,1005.14
2019-03-25T06:57:04.543Z,1005.15
2019-03-25T06:58:04.523Z,1005.12
2019-03-25T06:59:04.529Z,1005.09
2019-03-25T07:00:04.532Z,1005.15
2019-03-25T07:01:04.496Z,1005.16
2019-03-25T07:02:04.505Z,1005.14
2019-03-25T07:03:04.477Z,1005.12
2019-03-25T07:04:04.469Z,1005.19
2019-03-25T07:05:04.458Z,1005.21
2019-03-25T07:06:04.449Z,1005.19
2019-03-25T07:07:04.426Z,1005.19
2019-03-25T07:08:04.418Z,1005.18
2019-03-25T07:09:04.426Z,1005.16
2019-03-25T07:10:04.402Z,1005.15
2019-03-25T07:11:04.405Z,1005.13
2019-03-25T07:12:04.367Z,1005.17
2019-03-25T07:13:04.367Z,1005.15
2019-03-25T07:14:04.439Z,1005.16
2019-03-25T07:15:04.397Z,1005.16
2019-03-25T07:16:04.352Z,1005.23
2019-03-25T07:17:04.325Z,1005.20
2019-03-25T07:18:04.306Z,1005.21
2019-03-25T07:19:04.300Z,1005.19
2019-03-25T07:20:04.285Z,1005.11
2019-03-25T07:21:04.293Z,1005.13
2019-03-25T07:22:04.290Z,1005.16
2019-03-25T07:23:04.264Z,1005.20
2019-03-25T07:24:04.285Z,1005.20
2019-03-25T07:25:04.241Z,1005.19
2019-03-25T07:26:04.249Z,1005.20
2019-03-25T07:27:04.214Z,1005.18
2019-03-25T07:28:04.213Z,1005.18
2019-03-25T07:29:04.219Z,1005.13
2019-03-25T07:30:04.225Z,1005.16
2019-03-25T07:31:04.160Z,1005.14
2019-03-25T07:32:04.171Z,1005.20
2019-03-25T07:33:05.190Z,1005.17
2019-03-25T07:34:04.248Z,1005.19
2019-03-25T07:35:04.251Z,1005.20
2019-03-25T07:36:04.804Z,1005.25
2019-03-25T07:37:04.108Z,1005.21
2019-03-25T07:38:04.816Z,1005.26
2019-03-25T07:39:04.726Z,1005.29
2019-03-25T07:40:04.078Z,1005.30
2019-03-25T07:41:04.077Z,1005.24
2019-03-25T07:42:04.051Z,1005.24
2019-03-25T07:43:04.071Z,1005.30
2019-03-25T07:44:04.026Z,1005.20
2019-03-25T07:45:04.014Z,1005.22
2019-03-25T07:46:04.008Z,1005.21
2019-03-25T07:47:04.005Z,1005.26
2019-03-25T07:48:04.315Z,1005.22
2019-03-25T07:49:03.983Z,1005.22
2019-03-25T07:50:03.958Z,1005.19
2019-03-25T07:51:03.970Z,1005.23
2019-03-25T07:52:03.930Z,1005.20
2019-03-25T07:53:03.922Z,1005.21
2019-03-25T07:54:03.954Z,1005.21
2019-03-25T07:55:03.925Z,1005.21
2019-03-25T07:56:03.933Z,1005.19
2019-03-25T07:57:03.908Z,1005.23
2019-03-25T07:58:03.874Z,1005.25
2019-03-25T07:59:03.867Z,1005.30
2019-03-25T08:00:13.133Z,1005.30
2019-03-25T08:01:04.846Z,1005.29
2019-03-25T08:02:03.840Z,1005.35
2019-03-25T08:03:03.827Z,1005.34
2019-03-25T08:04:03.856Z,1005.34
2019-03-25T08:05:03.808Z,1005.39
2019-03-25T08:06:03.817Z,1005.33
2019-03-25T08:07:03.786Z,1005.33
2019-03-25T08:08:03.807Z,1005.30
2019-03-25T08:09:04.255Z,1005.33
2019-03-25T08:10:03.762Z,1005.34
2019-03-25T08:11:03.771Z,1005.25
2019-03-25T08:12:03.750Z,1005.35
2019-03-25T08:13:04.758Z,1005.34
2019-03-25T08:14:03.744Z,1005.31
2019-03-25T08:15:03.727Z,1005.39
2019-03-25T08:16:03.694Z,1005.36
2019-03-25T08:17:03.670Z,1005.37
2019-03-25T08:18:03.663Z,1005.40
2019-03-25T08:19:03.681Z,1005.37
2019-03-25T08:20:03.637Z,1005.35
2019-03-25T08:21:03.624Z,1005.36
2019-03-25T08:22:03.607Z,1005.35
2019-03-25T08:23:03.594Z,1005.39
2019-03-25T08:24:03.592Z,1005.34
2019-03-25T08:25:03.600Z,1005.33
2019-03-25T08:26:03.592Z,1005.30
2019-03-25T08:27:03.567Z,1005.43
2019-03-25T08:28:03.559Z,1005.39
2019-03-25T08:29:03.546Z,1005.40
2019-03-25T08:30:03.523Z,1005.43
2019-03-25T08:31:03.537Z,1005.42
2019-03-25T08:32:03.525Z,1005.46
2019-03-25T08:33:03.506Z,1005.45
2019-03-25T08:34:03.474Z,1005.48
2019-03-25T08:35:03.464Z,1005.47
2019-03-25T08:36:03.478Z,1005.42
2019-03-25T08:37:04.491Z,1005.47
2019-03-25T08:38:03.464Z,1005.50
2019-03-25T08:39:03.425Z,1005.55
2019-03-25T08:40:03.418Z,1005.50
2019-03-25T08:41:03.412Z,1005.54
2019-03-25T08:42:03.381Z,1005.57
2019-03-25T08:43:03.413Z,1005.59
2019-03-25T08:44:03.378Z,1005.59
2019-03-25T08:45:03.347Z,1005.57
2019-03-25T08:46:03.362Z,1005.59
2019-03-25T08:47:03.369Z,1005.61
2019-03-25T08:48:03.326Z,1005.64
2019-03-25T08:49:03.332Z,1005.61
2019-03-25T08:50:03.315Z,1005.69
2019-03-25T08:51:03.300Z,1005.62
2019-03-25T08:52:03.289Z,1005.53
2019-03-25T08:53:03.302Z,1005.62
2019-03-25T08:54:03.261Z,1005.58
2019-03-25T08:55:03.252Z,1005.60
2019-03-25T08:56:03.244Z,1005.60
2019-03-25T08:57:03.233Z,1005.63
2019-03-25T08:58:12.012Z,1005.64
2019-03-25T08:59:04.213Z,1005.60
2019-03-25T09:00:03.239Z,1005.68
2019-03-25T09:01:03.193Z,1005.72
2019-03-25T09:02:03.167Z,1005.69
2019-03-25T09:03:03.162Z,1005.68
2019-03-25T09:04:03.155Z,1005.66
2019-03-25T09:05:03.149Z,1005.73
2019-03-25T09:06:03.152Z,1005.70
2019-03-25T09:07:03.208Z,1005.69
2019-03-25T09:08:03.108Z,1005.74
2019-03-25T09:09:03.096Z,1005.72
2019-03-25T09:10:03.095Z,1005.76
2019-03-25T09:11:03.102Z,1005.73
2019-03-25T09:12:03.071Z,1005.76
2019-03-25T09:13:03.078Z,1005.79
2019-03-25T09:14:03.043Z,1005.76
2019-03-25T09:15:03.042Z,1005.74
2019-03-25T09:16:03.014Z,1005.74
2019-03-25T09:17:03.008Z,1005.91
2019-03-25T09:18:03.022Z,1005.74
2019-03-25T09:19:02.997Z,1005.77
2019-03-25T09:20:02.973Z,1005.83
2019-03-25T09:21:02.976Z,1005.79
2019-03-25T09:22:02.964Z,1005.87
2019-03-25T09:23:02.986Z,1005.85
2019-03-25T09:24:02.957Z,1005.81
2019-03-25T09:25:02.932Z,1005.95
2019-03-25T09:26:02.907Z,1005.92
2019-03-25T09:27:02.911Z,1005.93
2019-03-25T09:28:02.879Z,1005.89
2019-03-25T09:29:02.907Z,1005.88
2019-03-25T09:30:03.671Z,1005.88
2019-03-25T09:31:02.864Z,1005.91
2019-03-25T09:32:02.851Z,1005.89
2019-03-25T09:33:02.857Z,1005.97
2019-03-25T09:34:02.819Z,1006.01
2019-03-25T09:35:02.840Z,1005.99
2019-03-25T09:36:02.930Z,1005.96
2019-03-25T09:37:02.800Z,1005.93
2019-03-25T09:38:02.775Z,1005.92
2019-03-25T09:39:02.779Z,1005.91
2019-03-25T09:40:02.777Z,1005.97
2019-03-25T09:41:02.742Z,1005.96
2019-03-25T09:42:02.737Z,1005.96
2019-03-25T09:43:02.747Z,1005.96
2019-03-25T09:44:02.735Z,1006.04
2019-03-25T09:45:02.749Z,1006.05
2019-03-25T09:46:02.691Z,1005.98
2019-03-25T09:47:02.687Z,1005.96
2019-03-25T09:48:02.674Z,1005.94
2019-03-25T09:49:02.662Z,1005.91
2019-03-25T09:50:02.657Z,1005.91
2019-03-25T09:51:02.665Z,1005.99
2019-03-25T09:52:02.616Z,1005.99
2019-03-25T09:53:02.611Z,1005.98
2019-03-25T09:54:02.611Z,1006.03
2019-03-25T09:55:02.597Z,1005.98
2019-03-25T09:56:02.612Z,1005.98
2019-03-25T09:57:02.593Z,1005.98
2019-03-25T09:58:02.559Z,1005.98
2019-03-25T09:59:02.550Z,1006.04
2019-03-25T10:00:02.549Z,1006.05
2019-03-25T10:01:02.527Z,1006.06
2019-03-25T10:02:02.552Z,1006.02
2019-03-25T10:03:02.530Z,1006.03
2019-03-25T10:04:02.491Z,1006.08
2019-03-25T10:05:02.489Z,1006.05
2019-03-25T10:06:02.468Z,1006.04
2019-03-25T10:07:02.458Z,1006.03
2019-03-25T10:08:02.476Z,1006.01
2019-03-25T10:09:02.441Z,1006.08
2019-03-25T10:10:02.418Z,1006.07
2019-03-25T10:11:02.413Z,1006.08
2019-03-25T10:12:02.409Z,1006.08
2019-03-25T10:13:02.407Z,1006.06
2019-03-25T10:14:02.393Z,1006.05
2019-03-25T10:15:02.404Z,1006.14
2019-03-25T10:16:02.365Z,1006.14
2019-03-25T10:17:02.362Z,1006.11
2019-03-25T10:18:02.342Z,1006.22
2019-03-25T10:19:02.330Z,1006.23
2019-03-25T10:20:02.514Z,1006.24
2019-03-25T10:21:02.317Z,1006.20
2019-03-25T10:22:02.476Z,1006.27
2019-03-25T10:23:02.318Z,1006.31
2019-03-25T10:24:02.842Z,1006.25
2019-03-25T10:25:02.255Z,1006.34
2019-03-25T10:26:02.256Z,1006.46
2019-03-25T10:27:02.278Z,1006.41
2019-03-25T10:28:02.242Z,1006.44
2019-03-25T10:29:02.222Z,1006.47
2019-03-25T10:30:02.215Z,1006.45
2019-03-25T10:31:02.195Z,1006.46
2019-03-25T10:32:02.175Z,1006.49
2019-03-25T10:33:02.205Z,1006.45
2019-03-25T10:34:02.171Z,1006.45
2019-03-25T10:35:02.164Z,1006.41
2019-03-25T10:36:02.157Z,1006.34
2019-03-25T10:37:02.147Z,1006.38
2019-03-25T10:38:02.148Z,1006.42
2019-03-25T10:39:02.177Z,1006.46
2019-03-25T10:40:02.107Z,1006.45
2019-03-25T10:41:02.101Z,1006.44
2019-03-25T10:42:02.072Z,1006.42
2019-03-25T10:43:02.063Z,1006.38
2019-03-25T10:44:02.090Z,1006.36
2019-03-25T10:45:02.067Z,1006.41
2019-03-25T10:46:02.032Z,1006.44
2019-03-25T10:47:02.037Z,1006.39
2019-03-25T10:48:02.022Z,1006.38
2019-03-25T10:49:01.998Z,1006.36
2019-03-25T10:50:02.003Z,1006.38
2019-03-25T10:51:01.971Z,1006.40
2019-03-25T10:52:01.967Z,1006.41
2019-03-25T10:53:01.948Z,1006.42
2019-03-25T10:54:01.957Z,1006.41
2019-03-25T10:55:01.957Z,1006.32
2019-03-25T10:56:01.920Z,1006.37
2019-03-25T10:57:01.897Z,1006.43
2019-03-25T10:58:01.901Z,1006.41
2019-03-25T10:59:01.894Z,1006.35
2019-03-25T11:00:01.889Z,1006.41
2019-03-25T11:01:01.865Z,1006.24
2019-03-25T11:02:01.905Z,1006.38
2019-03-25T11:03:01.843Z,1006.27
2019-03-25T11:04:01.820Z,1006.37
2019-03-25T11:05:01.805Z,1006.38
2019-03-25T11:06:01.820Z,1006.43
2019-03-25T11:07:01.908Z,1006.44
2019-03-25T11:08:01.840Z,1006.39
2019-03-25T11:09:01.778Z,1006.46
2019-03-25T11:10:01.765Z,1006.47
2019-03-25T11:11:01.751Z,1006.47
2019-03-25T11:12:01.739Z,1006.49
2019-03-25T11:13:01.738Z,1006.47
2019-03-25T11:14:01.737Z,1006.53
2019-03-25T11:15:01.714Z,1006.44
2019-03-25T11:16:01.736Z,1006.39
2019-03-25T11:17:01.678Z,1006.46
2019-03-25T11:18:01.690Z,1006.46
2019-03-25T11:19:01.696Z,1006.45
2019-03-25T11:20:01.660Z,1006.47
2019-03-25T11:21:01.685Z,1006.47
2019-03-25T11:22:01.631Z,1006.43
2019-03-25T11:23:01.614Z,1006.53
2019-03-25T11:24:01.613Z,1006.58
2019-03-25T11:25:01.594Z,1006.57
2019-03-25T11:26:01.590Z,1006.48
2019-03-25T11:27:01.596Z,1006.48
2019-03-25T11:28:01.563Z,1006.50
2019-03-25T11:29:08.304Z,1006.44
2019-03-25T11:30:02.547Z,1006.47
2019-03-25T11:31:01.548Z,1006.49
2019-03-25T11:32:01.545Z,1006.49
2019-03-25T11:33:01.520Z,1006.49
2019-03-25T11:34:01.506Z,1006.62
2019-03-25T11:35:01.491Z,1006.57
2019-03-25T11:36:02.780Z,1006.65
2019-03-25T11:37:01.492Z,1006.65
2019-03-25T11:38:01.460Z,1006.69
2019-03-25T11:39:01.476Z,1006.71
2019-03-25T11:40:01.441Z,1006.69
2019-03-25T11:41:01.423Z,1006.75
2019-03-25T11:42:01.410Z,1006.71
2019-03-25T11:43:01.421Z,1006.75
2019-03-25T11:44:01.402Z,1006.78
2019-03-25T11:45:01.381Z,1006.74
2019-03-25T11:46:01.354Z,1006.78
2019-03-25T11:47:01.350Z,1006.82
2019-03-25T11:48:01.343Z,1006.77
2019-03-25T11:49:01.351Z,1006.78
2019-03-25T11:50:01.337Z,1006.76
2019-03-25T11:51:01.329Z,1006.79
2019-03-25T11:52:01.305Z,1006.76
2019-03-25T11:53:01.299Z,1006.75
2019-03-25T11:54:01.303Z,1006.68
2019-03-25T11:55:01.269Z,1006.70
2019-03-25T11:56:01.260Z,1006.58
2019-03-25T11:57:01.249Z,1006.65
2019-03-25T11:58:01.260Z,1006.56
2019-03-25T11:59:03.001Z,1006.60
2019-03-25T12:00:01.243Z,1006.57
2019-03-25T12:01:01.192Z,1006.57
2019-03-25T12:02:01.198Z,1006.55
2019-03-25T12:03:01.200Z,1006.48
2019-03-25T12:04:01.180Z,1006.51
2019-03-25T12:05:01.191Z,1006.47